KPMH/PMH METAR and TAF weather

Enter ICAO airport designator
Station Type Date Time Source
KPMH METAR 2020/09/23 17:59 UTC NOAA

KPMH 231759Z AUTO 14004KT 10SM CLR 21/13 A3009 RMK AO2


Station Type Date Time Source
KPMH Decoded METAR 2020/09/23 17:59 UTC NOAA

Station name not available
Sep 23, 2020 - 01:59 PM EDT / 2020.09.23 1759 UTC
Wind: from the SE (140 degrees) at 5 MPH (4 KT):0
Visibility: 10 mile(s):0
Sky conditions: clear
Temperature: 69 F (21 C)
Dew Point: 55 F (13 C)
Relative Humidity: 60%
Pressure (altimeter): 30.09 in. Hg (1018 hPa)
ob: KPMH 231759Z AUTO 14004KT 10SM CLR 21/13 A3009 RMK AO2
cycle: 18

Station Type Date Time Source
KPMH TAF UTC NOAA

Error!

Example: see airport list